Terminal Aerodrome Forecast
Issued by NWS Lake Charles, LA

Home | Current Version | Previous Version | Text Only | Print | Product List | Glossary On
Versions: 1 2 3 4 5 6 7 8 9 10 11 12 13 14 15 16
000
FTUS44 KLCH 251416 AAA
TAFAEX
TAF AMD
KAEX 251416Z 2514/2612 18007KT P6SM BKN015 OVC025
      TEMPO 2514/2518 SCT025 BKN035
     FM251800 17010KT P6SM BKN035
     FM260100 15008KT P6SM SCT250
     FM260700 15005KT P6SM BKN015=

USA.gov is the U.S. government's official web portal to all federal, state and local government web resources and services.